Time,TemperatureF,DewpointF,PressureIn,WindDirection,WindDirectionDegrees,WindSpeedMPH,WindSpeedGustMPH,Humidity,HourlyPrecipIn,Conditions,Clouds,dailyrainin,SoftwareType,DateUTC
2013-02-27 00:03:00,37.0,34.1,29.92,NE,45,9.0,17.0,89,0.00,,,-99.99,WeatherLink 5.7,2013-02-27 05:03:00,
2013-02-27 00:13:00,37.2,34.5,29.92,NE,45,10.0,17.0,90,0.00,,,-99.99,WeatherLink 5.7,2013-02-27 05:13:00,
2013-02-27 00:23:00,37.4,34.7,29.93,NE,45,7.0,17.0,90,0.00,,,-99.99,WeatherLink 5.7,2013-02-27 05:23:00,
2013-02-27 00:33:00,37.5,34.8,29.92,NE,45,9.0,19.0,90,0.00,,,-99.99,WeatherLink 5.7,2013-02-27 05:33:00,
2013-02-27 00:43:00,37.3,34.6,29.91,NE,45,10.0,21.0,90,0.00,,,-99.99,WeatherLink 5.7,2013-02-27 05:43:00,
2013-02-27 00:53:00,37.1,34.7,29.92,NE,45,9.0,19.0,91,0.00,,,-99.99,WeatherLink 5.7,2013-02-27 05:53:00,
2013-02-27 01:03:00,37.0,34.6,29.91,NE,45,8.0,15.0,91,0.00,,,-99.99,WeatherLink 5.7,2013-02-27 06:03:00,
2013-02-27 01:13:00,36.9,34.8,29.89,NE,45,11.0,21.0,92,0.00,,,-99.99,WeatherLink 5.7,2013-02-27 06:13:00,
2013-02-27 01:23:00,36.9,35.1,29.90,NE,45,10.0,18.0,93,0.00,,,-99.99,WeatherLink 5.7,2013-02-27 06:23:00,
2013-02-27 01:33:00,36.8,35.0,29.88,NE,45,12.0,23.0,93,0.00,,,-99.99,WeatherLink 5.7,2013-02-27 06:33:00,
2013-02-27 01:43:00,36.8,35.0,29.88,NE,45,12.0,24.0,93,0.00,,,-99.99,WeatherLink 5.7,2013-02-27 06:43:00,
2013-02-27 01:53:00,36.8,35.0,29.86,NE,45,11.0,21.0,93,0.00,,,-99.99,WeatherLink 5.7,2013-02-27 06:53:00,
2013-02-27 02:03:00,36.8,35.0,29.86,NE,45,9.0,19.0,93,0.00,,,-99.99,WeatherLink 5.7,2013-02-27 07:03:00,
2013-02-27 02:13:00,37.0,35.2,29.85,NE,45,11.0,22.0,93,0.00,,,-99.99,WeatherLink 5.7,2013-02-27 07:13:00,
2013-02-27 02:23:00,37.0,35.4,29.84,NE,45,13.0,25.0,94,0.00,,,-99.99,WeatherLink 5.7,2013-02-27 07:23:00,
2013-02-27 02:33:00,37.1,35.5,29.83,NE,45,12.0,24.0,94,0.00,,,-99.99,WeatherLink 5.7,2013-02-27 07:33:00,
2013-02-27 02:43:00,37.1,35.5,29.82,NE,45,13.0,22.0,94,0.00,,,-99.99,WeatherLink 5.7,2013-02-27 07:43:00,
2013-02-27 02:53:00,37.1,35.5,29.81,NE,45,13.0,25.0,94,0.00,,,-99.99,WeatherLink 5.7,2013-02-27 07:53:00,
2013-02-27 03:03:00,37.2,35.6,29.80,NE,45,13.0,22.0,94,0.00,,,-99.99,WeatherLink 5.7,2013-02-27 08:03:00,
2013-02-27 03:13:00,37.2,35.6,29.79,NE,45,14.0,25.0,94,0.00,,,-99.99,WeatherLink 5.7,2013-02-27 08:13:00,
2013-02-27 03:23:00,37.3,35.7,29.78,NE,45,12.0,24.0,94,0.00,,,-99.99,WeatherLink 5.7,2013-02-27 08:23:00,
2013-02-27 03:33:00,37.4,35.8,29.77,NE,45,13.0,22.0,94,0.00,,,-99.99,WeatherLink 5.7,2013-02-27 08:33:00,
2013-02-27 03:43:00,37.5,36.2,29.77,NE,45,12.0,24.0,95,0.00,,,-99.99,WeatherLink 5.7,2013-02-27 08:43:00,
2013-02-27 03:53:00,37.5,35.9,29.77,NE,45,11.0,23.0,94,0.00,,,-99.99,WeatherLink 5.7,2013-02-27 08:53:00,
2013-02-27 04:03:00,37.5,35.9,29.76,NE,45,14.0,28.0,94,0.00,,,-99.99,WeatherLink 5.7,2013-02-27 09:03:00,
2013-02-27 04:13:00,37.6,36.3,29.76,NE,45,12.0,26.0,95,0.00,,,-99.99,WeatherLink 5.7,2013-02-27 09:13:00,
2013-02-27 04:23:00,37.7,36.1,29.75,NE,45,13.0,22.0,94,0.00,,,-99.99,WeatherLink 5.7,2013-02-27 09:23:00,
2013-02-27 04:33:00,37.9,36.3,29.75,NE,45,13.0,25.0,94,0.00,,,-99.99,WeatherLink 5.7,2013-02-27 09:33:00,
2013-02-27 04:43:00,38.1,36.8,29.74,NE,45,13.0,24.0,95,0.00,,,-99.99,WeatherLink 5.7,2013-02-27 09:43:00,
2013-02-27 04:53:00,38.2,36.6,29.73,NE,45,14.0,25.0,94,0.00,,,-99.99,WeatherLink 5.7,2013-02-27 09:53:00,
2013-02-27 05:03:00,38.3,36.7,29.73,NE,45,14.0,22.0,94,0.00,,,-99.99,WeatherLink 5.7,2013-02-27 10:03:00,
2013-02-27 05:13:00,38.5,37.2,29.72,NE,45,11.0,20.0,95,0.00,,,-99.99,WeatherLink 5.7,2013-02-27 10:13:00,
2013-02-27 05:23:00,38.6,37.3,29.71,NE,45,13.0,23.0,95,0.00,,,-99.99,WeatherLink 5.7,2013-02-27 10:23:00,
2013-02-27 05:33:00,38.8,37.5,29.69,NE,45,13.0,26.0,95,0.00,,,-99.99,WeatherLink 5.7,2013-02-27 10:33:00,
2013-02-27 05:43:00,38.9,37.6,29.69,NE,45,13.0,26.0,95,0.00,,,-99.99,WeatherLink 5.7,2013-02-27 10:43:00,
2013-02-27 05:53:00,39.2,37.9,29.69,NE,45,12.0,26.0,95,0.00,,,-99.99,WeatherLink 5.7,2013-02-27 10:53:00,
2013-02-27 06:03:00,39.6,38.3,29.68,NE,45,13.0,26.0,95,0.00,,,-99.99,WeatherLink 5.7,2013-02-27 11:03:00,
2013-02-27 06:13:00,39.9,38.3,29.67,NE,45,14.0,26.0,94,0.00,,,-99.99,WeatherLink 5.7,2013-02-27 11:13:00,
2013-02-27 06:23:00,40.0,38.4,29.67,NE,45,12.0,24.0,94,0.00,,,-99.99,WeatherLink 5.7,2013-02-27 11:23:00,
2013-02-27 06:33:00,40.2,38.9,29.67,NE,45,11.0,27.0,95,0.00,,,-99.99,WeatherLink 5.7,2013-02-27 11:33:00,
2013-02-27 06:43:00,40.4,39.1,29.66,NE,45,11.0,24.0,95,0.00,,,-99.99,WeatherLink 5.7,2013-02-27 11:43:00,
2013-02-27 06:53:00,40.6,39.3,29.66,NE,45,11.0,23.0,95,0.00,,,-99.99,WeatherLink 5.7,2013-02-27 11:53:00,
2013-02-27 07:03:00,40.6,39.5,29.65,NE,45,12.0,22.0,96,0.00,,,-99.99,WeatherLink 5.7,2013-02-27 12:03:00,
2013-02-27 07:13:00,40.8,39.7,29.65,NE,45,13.0,25.0,96,0.00,,,-99.99,WeatherLink 5.7,2013-02-27 12:13:00,
2013-02-27 07:23:00,40.9,39.8,29.64,NE,45,12.0,21.0,96,0.00,,,-99.99,WeatherLink 5.7,2013-02-27 12:23:00,
2013-02-27 07:33:00,41.1,40.3,29.64,NE,45,11.0,25.0,97,0.00,,,-99.99,WeatherLink 5.7,2013-02-27 12:33:00,
2013-02-27 07:43:00,41.3,40.5,29.64,NE,45,9.0,18.0,97,0.00,,,-99.99,WeatherLink 5.7,2013-02-27 12:43:00,
2013-02-27 07:53:00,41.5,40.7,29.64,NE,45,11.0,18.0,97,0.00,,,-99.99,WeatherLink 5.7,2013-02-27 12:53:00,
2013-02-27 08:03:00,41.6,41.1,29.63,NE,45,11.0,21.0,98,0.00,,,-99.99,WeatherLink 5.7,2013-02-27 13:03:00,
2013-02-27 08:13:00,41.8,41.0,29.63,NNE,22,10.0,19.0,97,0.00,,,-99.99,WeatherLink 5.7,2013-02-27 13:13:00,
2013-02-27 08:23:00,41.9,41.4,29.63,NNE,22,11.0,18.0,98,0.00,,,-99.99,WeatherLink 5.7,2013-02-27 13:23:00,
2013-02-27 08:33:00,42.0,41.5,29.62,NE,45,10.0,21.0,98,0.00,,,-99.99,WeatherLink 5.7,2013-02-27 13:33:00,
2013-02-27 08:43:00,42.1,41.6,29.62,NE,45,13.0,21.0,98,0.00,,,-99.99,WeatherLink 5.7,2013-02-27 13:43:00,
2013-02-27 08:54:00,42.2,41.7,29.62,NE,45,12.0,20.0,98,0.00,,,-99.99,WeatherLink 5.7,2013-02-27 13:54:00,
2013-02-27 09:03:00,42.3,41.8,29.61,NE,45,12.0,20.0,98,0.00,,,-99.99,WeatherLink 5.7,2013-02-27 14:03:00,
2013-02-27 09:13:00,42.3,41.5,29.61,NE,45,13.0,24.0,97,0.00,,,-99.99,WeatherLink 5.7,2013-02-27 14:13:00,
2013-02-27 09:23:00,42.4,41.6,29.59,NE,45,12.0,22.0,97,0.00,,,-99.99,WeatherLink 5.7,2013-02-27 14:23:00,
2013-02-27 09:33:00,42.4,41.6,29.59,NE,45,13.0,26.0,97,0.00,,,-99.99,WeatherLink 5.7,2013-02-27 14:33:00,
2013-02-27 09:43:00,42.4,41.6,29.59,NE,45,12.0,25.0,97,0.00,,,-99.99,WeatherLink 5.7,2013-02-27 14:43:00,
2013-02-27 09:53:00,42.5,41.7,29.59,NNE,22,10.0,17.0,97,0.00,,,-99.99,WeatherLink 5.7,2013-02-27 14:53:00,
2013-02-27 10:03:00,42.5,41.7,29.58,NE,45,10.0,19.0,97,0.00,,,-99.99,WeatherLink 5.7,2013-02-27 15:03:00,
2013-02-27 10:13:00,42.6,42.1,29.58,NE,45,11.0,20.0,98,0.00,,,-99.99,WeatherLink 5.7,2013-02-27 15:13:00,
2013-02-27 10:23:00,42.6,41.8,29.58,NE,45,11.0,20.0,97,0.00,,,-99.99,WeatherLink 5.7,2013-02-27 15:23:00,
2013-02-27 10:33:00,42.6,42.1,29.58,NE,45,8.0,16.0,98,0.00,,,-99.99,WeatherLink 5.7,2013-02-27 15:33:00,
2013-02-27 10:43:00,42.7,42.2,29.58,NE,45,8.0,17.0,98,0.00,,,-99.99,WeatherLink 5.7,2013-02-27 15:43:00,
2013-02-27 10:53:00,42.8,42.3,29.59,NE,45,6.0,14.0,98,0.00,,,-99.99,WeatherLink 5.7,2013-02-27 15:53:00,
2013-02-27 11:03:00,42.8,42.3,29.58,NE,45,7.0,16.0,98,0.00,,,-99.99,WeatherLink 5.7,2013-02-27 16:03:00,
2013-02-27 11:13:00,43.0,42.7,29.57,NE,45,12.0,21.0,99,0.00,,,-99.99,WeatherLink 5.7,2013-02-27 16:13:00,
2013-02-27 11:23:00,43.0,42.7,29.57,NE,45,8.0,15.0,99,0.00,,,-99.99,WeatherLink 5.7,2013-02-27 16:23:00,
2013-02-27 11:33:00,43.2,42.9,29.56,NE,45,7.0,13.0,99,0.00,,,-99.99,WeatherLink 5.7,2013-02-27 16:33:00,
2013-02-27 11:43:00,43.2,42.9,29.57,NE,45,8.0,15.0,99,0.00,,,-99.99,WeatherLink 5.7,2013-02-27 16:43:00,
2013-02-27 11:53:00,43.1,42.6,29.57,NE,45,5.0,12.0,98,0.00,,,-99.99,WeatherLink 5.7,2013-02-27 16:53:00,
2013-02-27 12:03:00,43.5,43.0,29.58,NE,45,3.0,8.0,98,0.00,,,-99.99,WeatherLink 5.7,2013-02-27 17:03:00,
2013-02-27 12:13:00,43.4,42.9,29.57,NNE,22,4.0,8.0,98,0.00,,,-99.99,WeatherLink 5.7,2013-02-27 17:13:00,
2013-02-27 12:23:00,43.6,43.3,29.55,NNE,22,5.0,8.0,99,0.00,,,-99.99,WeatherLink 5.7,2013-02-27 17:23:00,
2013-02-27 12:33:00,43.8,43.5,29.55,NNE,22,6.0,11.0,99,0.00,,,-99.99,WeatherLink 5.7,2013-02-27 17:33:00,
2013-02-27 12:43:00,43.8,43.5,29.56,NNE,22,6.0,11.0,99,0.00,,,-99.99,WeatherLink 5.7,2013-02-27 17:43:00,
2013-02-27 12:53:00,43.9,43.6,29.55,NNE,22,6.0,10.0,99,0.00,,,-99.99,WeatherLink 5.7,2013-02-27 17:53:00,
2013-02-27 13:03:00,44.0,43.5,29.55,NNE,22,5.0,10.0,98,0.00,,,-99.99,WeatherLink 5.7,2013-02-27 18:03:00,
2013-02-27 13:13:00,44.1,43.6,29.55,NE,45,4.0,8.0,98,0.00,,,-99.99,WeatherLink 5.7,2013-02-27 18:13:00,
2013-02-27 13:23:00,44.3,44.0,29.56,NE,45,3.0,8.0,99,0.00,,,-99.99,WeatherLink 5.7,2013-02-27 18:23:00,
2013-02-27 13:33:00,44.5,44.0,29.55,NE,45,1.0,5.0,98,0.00,,,-99.99,WeatherLink 5.7,2013-02-27 18:33:00,
2013-02-27 13:43:00,44.8,44.5,29.56,NE,45,1.0,4.0,99,0.00,,,-99.99,WeatherLink 5.7,2013-02-27 18:43:00,
2013-02-27 13:53:00,45.1,44.6,29.56,NE,45,2.0,6.0,98,0.00,,,-99.99,WeatherLink 5.7,2013-02-27 18:53:00,
2013-02-27 14:03:00,45.1,44.6,29.57,NNE,22,2.0,5.0,98,0.00,,,-99.99,WeatherLink 5.7,2013-02-27 19:03:00,
2013-02-27 14:13:00,45.3,44.5,29.57,North,0,3.0,7.0,97,0.00,,,-99.99,WeatherLink 5.7,2013-02-27 19:13:00,
2013-02-27 14:23:00,45.2,44.4,29.57,North,0,3.0,5.0,97,0.00,,,-99.99,WeatherLink 5.7,2013-02-27 19:23:00,
2013-02-27 14:33:00,45.5,45.0,29.57,North,0,2.0,4.0,98,0.00,,,-99.99,WeatherLink 5.7,2013-02-27 19:33:00,
2013-02-27 14:43:00,46.6,46.1,29.57,North,0,3.0,6.0,98,0.00,,,-99.99,WeatherLink 5.7,2013-02-27 19:43:00,
2013-02-27 14:53:00,47.7,46.3,29.57,NNW,337,3.0,5.0,95,0.00,,,-99.99,WeatherLink 5.7,2013-02-27 19:53:00,
2013-02-27 15:03:00,48.3,46.4,29.58,NNW,337,4.0,8.0,93,0.00,,,-99.99,WeatherLink 5.7,2013-02-27 20:03:00,
2013-02-27 15:13:00,48.9,46.1,29.58,WSW,247,5.0,9.0,90,0.00,,,-99.99,WeatherLink 5.7,2013-02-27 20:13:00,
2013-02-27 15:23:00,49.7,45.7,29.58,WSW,247,3.0,7.0,86,0.00,,,-99.99,WeatherLink 5.7,2013-02-27 20:23:00,
2013-02-27 15:33:00,50.3,44.7,29.59,WSW,247,2.0,5.0,81,0.00,,,-99.99,WeatherLink 5.7,2013-02-27 20:33:00,
2013-02-27 15:43:00,50.1,43.8,29.59,WSW,247,7.0,13.0,79,0.00,,,-99.99,WeatherLink 5.7,2013-02-27 20:43:00,
2013-02-27 15:53:00,49.7,41.4,29.60,WSW,247,8.0,15.0,73,0.00,,,-99.99,WeatherLink 5.7,2013-02-27 20:53:00,
2013-02-27 16:03:00,49.9,40.1,29.60,WSW,247,8.0,14.0,69,0.00,,,-99.99,WeatherLink 5.7,2013-02-27 21:03:00,
2013-02-27 16:13:00,50.4,39.5,29.61,WSW,247,9.0,19.0,66,0.00,,,-99.99,WeatherLink 5.7,2013-02-27 21:13:00,
2013-02-27 16:23:00,50.0,38.3,29.62,WSW,247,10.0,20.0,64,0.00,,,-99.99,WeatherLink 5.7,2013-02-27 21:23:00,
2013-02-27 16:33:00,49.5,37.0,29.61,West,270,10.0,20.0,62,0.00,,,-99.99,WeatherLink 5.7,2013-02-27 21:33:00,
2013-02-27 16:43:00,49.0,36.5,29.62,West,270,12.0,21.0,62,0.00,,,-99.99,WeatherLink 5.7,2013-02-27 21:43:00,
2013-02-27 16:53:00,48.9,34.8,29.62,West,270,12.0,25.0,58,0.00,,,-99.99,WeatherLink 5.7,2013-02-27 21:53:00,
2013-02-27 17:03:00,48.7,35.4,29.63,West,270,9.0,15.0,60,0.00,,,-99.99,WeatherLink 5.7,2013-02-27 22:03:00,
2013-02-27 17:13:00,48.8,35.5,29.63,West,270,7.0,16.0,60,0.00,,,-99.99,WeatherLink 5.7,2013-02-27 22:13:00,
2013-02-27 17:23:00,48.8,35.9,29.64,West,270,9.0,16.0,61,0.00,,,-99.99,WeatherLink 5.7,2013-02-27 22:23:00,
2013-02-27 17:33:00,47.9,34.7,29.64,West,270,10.0,19.0,60,0.00,,,-99.99,WeatherLink 5.7,2013-02-27 22:33:00,
2013-02-27 17:43:00,47.0,34.2,29.64,West,270,8.0,15.0,61,0.00,,,-99.99,WeatherLink 5.7,2013-02-27 22:43:00,
2013-02-27 17:53:00,47.1,34.3,29.65,West,270,7.0,12.0,61,0.00,,,-99.99,WeatherLink 5.7,2013-02-27 22:53:00,
2013-02-27 18:03:00,47.1,34.3,29.66,West,270,7.0,14.0,61,0.00,,,-99.99,WeatherLink 5.7,2013-02-27 23:03:00,
2013-02-27 18:13:00,47.4,34.2,29.67,West,270,6.0,15.0,60,0.00,,,-99.99,WeatherLink 5.7,2013-02-27 23:13:00,
2013-02-27 18:23:00,47.2,34.0,29.67,West,270,8.0,15.0,60,0.00,,,-99.99,WeatherLink 5.7,2013-02-27 23:23:00,
2013-02-27 18:33:00,47.0,34.2,29.68,West,270,7.0,13.0,61,0.00,,,-99.99,WeatherLink 5.7,2013-02-27 23:33:00,
2013-02-27 18:43:00,47.1,33.9,29.68,West,270,7.0,13.0,60,0.00,,,-99.99,WeatherLink 5.7,2013-02-27 23:43:00,
2013-02-27 18:53:00,46.9,34.1,29.68,West,270,6.0,12.0,61,0.00,,,-99.99,WeatherLink 5.7,2013-02-27 23:53:00,
2013-02-27 19:03:00,46.9,33.7,29.68,WSW,247,6.0,10.0,60,0.00,,,-99.99,WeatherLink 5.7,2013-02-28 00:03:00,
2013-02-27 19:13:00,47.3,34.1,29.68,West,270,4.0,9.0,60,0.00,,,-99.99,WeatherLink 5.7,2013-02-28 00:13:00,
2013-02-27 19:23:00,47.4,34.2,29.68,West,270,5.0,13.0,60,0.00,,,-99.99,WeatherLink 5.7,2013-02-28 00:23:00,
2013-02-27 19:33:00,47.2,34.0,29.68,West,270,7.0,11.0,60,0.00,,,-99.99,WeatherLink 5.7,2013-02-28 00:33:00,
2013-02-27 19:43:00,47.0,33.8,29.69,West,270,6.0,12.0,60,0.00,,,-99.99,WeatherLink 5.7,2013-02-28 00:43:00,
2013-02-27 19:53:00,47.2,33.6,29.69,West,270,6.0,11.0,59,0.00,,,-99.99,WeatherLink 5.7,2013-02-28 00:53:00,
2013-02-27 20:03:00,46.8,33.6,29.69,West,270,8.0,13.0,60,0.00,,,-99.99,WeatherLink 5.7,2013-02-28 01:03:00,
2013-02-27 20:13:00,46.7,33.5,29.69,West,270,7.0,12.0,60,0.00,,,-99.99,WeatherLink 5.7,2013-02-28 01:13:00,
2013-02-27 20:23:00,46.4,33.3,29.69,WNW,292,6.0,14.0,60,0.00,,,-99.99,WeatherLink 5.7,2013-02-28 01:23:00,
2013-02-27 20:33:00,46.1,33.0,29.69,West,270,6.0,12.0,60,0.00,,,-99.99,WeatherLink 5.7,2013-02-28 01:33:00,
2013-02-27 20:43:00,46.6,33.0,29.70,West,270,6.0,11.0,59,0.00,,,-99.99,WeatherLink 5.7,2013-02-28 01:43:00,
2013-02-27 20:53:00,47.3,32.8,29.70,WSW,247,6.0,10.0,57,0.00,,,-99.99,WeatherLink 5.7,2013-02-28 01:53:00,
2013-02-27 21:03:00,46.5,33.4,29.70,West,270,4.0,8.0,60,0.00,,,-99.99,WeatherLink 5.7,2013-02-28 02:03:00,
2013-02-27 21:13:00,46.2,33.1,29.70,West,270,4.0,6.0,60,0.00,,,-99.99,WeatherLink 5.7,2013-02-28 02:13:00,
2013-02-27 21:23:00,45.7,33.0,29.70,West,270,3.0,6.0,61,0.00,,,-99.99,WeatherLink 5.7,2013-02-28 02:23:00,
2013-02-27 21:33:00,45.8,33.1,29.70,West,270,3.0,7.0,61,0.00,,,-99.99,WeatherLink 5.7,2013-02-28 02:33:00,
2013-02-27 21:43:00,45.7,33.0,29.69,West,270,3.0,7.0,61,0.00,,,-99.99,WeatherLink 5.7,2013-02-28 02:43:00,
2013-02-27 21:53:00,45.4,33.5,29.70,WNW,292,4.0,9.0,63,0.00,,,-99.99,WeatherLink 5.7,2013-02-28 02:53:00,
2013-02-27 22:03:00,46.6,33.4,29.70,West,270,3.0,7.0,60,0.00,,,-99.99,WeatherLink 5.7,2013-02-28 03:03:00,
2013-02-27 22:13:00,47.1,33.9,29.70,West,270,2.0,5.0,60,0.00,,,-99.99,WeatherLink 5.7,2013-02-28 03:13:00,
2013-02-27 22:23:00,47.5,33.9,29.69,West,270,1.0,5.0,59,0.00,,,-99.99,WeatherLink 5.7,2013-02-28 03:23:00,
2013-02-27 22:33:00,47.6,33.5,29.68,West,270,1.0,4.0,58,0.00,,,-99.99,WeatherLink 5.7,2013-02-28 03:33:00,
2013-02-27 22:43:00,47.0,33.8,29.69,West,270,1.0,4.0,60,0.00,,,-99.99,WeatherLink 5.7,2013-02-28 03:43:00,
2013-02-27 22:53:00,47.2,34.0,29.69,West,270,1.0,5.0,60,0.00,,,-99.99,WeatherLink 5.7,2013-02-28 03:53:00,
2013-02-27 23:03:00,47.3,34.1,29.69,West,270,3.0,6.0,60,0.00,,,-99.99,WeatherLink 5.7,2013-02-28 04:03:00,
2013-02-27 23:13:00,47.5,34.3,29.68,West,270,2.0,6.0,60,0.00,,,-99.99,WeatherLink 5.7,2013-02-28 04:13:00,
2013-02-27 23:23:00,47.4,34.2,29.68,WSW,247,1.0,5.0,60,0.00,,,-99.99,WeatherLink 5.7,2013-02-28 04:23:00,
2013-02-27 23:33:00,47.1,34.3,29.68,WSW,247,3.0,6.0,61,0.00,,,-99.99,WeatherLink 5.7,2013-02-28 04:33:00,
2013-02-27 23:43:00,46.9,34.1,29.68,WSW,247,3.0,6.0,61,0.00,,,-99.99,WeatherLink 5.7,2013-02-28 04:43:00,
2013-02-27 23:53:00,47.1,34.3,29.67,WSW,247,2.0,5.0,61,0.00,,,-99.99,WeatherLink 5.7,2013-02-28 04:53:00,